Hlavní strana
METAR-TAF:

METAR-TAF

Letiště :

Groznyj, Rusko

zeměpisná šířka: 43-23-18N, zeměpisná délka: 045-41-59E, výška: 167 m

Aktuální stav počasí

Zpráva byla vytvořena před 40 minutami, v 02:30 UTC
Východojihovýchodní vítr 2 kt
Teplota 1°C
Vlhkost vzduchu 100%
Tlak 1028 hPa
Viditelnost: 0100 m
mlha

METAR: URMG 180230Z 12001MPS 0100 R26/0350N FG VV001 01/01 Q1028 R26/090070 NOSIG RMK QBB050 MT OBSC OBST OBSC QFE756/1008

Čas: 06:10 (03:10 UTC)

Předpověď počasí

Zpráva byla vytvořena před 1 hodinou a 10 minutami, v 02:00 UTC
Předpověď platná od 18 v 03 UTC do 18 v 12 UTC
Východní vítr 6 kt s nárazy do 16 kt
Viditelnost: 0300 m
Zataženo ve výšce 200 ft
mrznoucí mlha
Dočasný
od 18 v 03 UTC do 18 v 08 UTC
vítr z různých směrů 2 kt
Viditelnost: 1200 m
Zataženo ve výšce 400 ft
kouřmo
Změna
od 18 v 08 UTC do 18 v 09 UTC
Viditelnost: 5000 m
Zataženo ve výšce 400 ft
kouřmo

TAF: URMG 180200Z 1803/1812 09003G08MPS 0300 FZFG OVC002 TEMPO 1803/1808 VRB01MPS 1200 BR OVC004 BECMG 1808/1809 5000 BR OVC004

Stav a předpovědi počasí z více než 4 000 letišť (zprávy METAR a TAF).

Červené a žluté tečky na mapě představují dostupné meteorologické stanice.

Když kurzor umístíte na tečku, zobrazí se název stanice.

Pak kliknutím zobrazíte stav a předpověď počasí.

Chcete-li změnit mapu, kliknutím na zelené tlačítko se znaménkem +mapu přiblížíte, kliknutím na zelené tlačítko se znaménkem – mapu oddálíte a kliknutím na zelené šipky přejdete na sousední mapy.


METAR-TAF: